createdAt,value
2023-02-03T00:00:40.295Z,9.02
2023-02-03T00:01:40.641Z,8.96
2023-02-03T00:02:41.045Z,8.96
2023-02-03T00:03:41.227Z,8.99
2023-02-03T00:04:41.526Z,8.91
2023-02-03T00:05:41.771Z,8.90
2023-02-03T00:06:42.059Z,8.96
2023-02-03T00:07:42.230Z,8.97
2023-02-03T00:08:42.579Z,8.99
2023-02-03T00:09:42.870Z,8.96
2023-02-03T00:10:43.197Z,8.96
2023-02-03T00:11:43.484Z,9.01
2023-02-03T00:12:43.797Z,9.04
2023-02-03T00:13:44.075Z,9.01
2023-02-03T00:14:44.426Z,8.99
2023-02-03T00:15:44.739Z,9.04
2023-02-03T00:16:45.148Z,9.02
2023-02-03T00:17:45.372Z,8.99
2023-02-03T00:18:45.682Z,9.01
2023-02-03T00:19:45.981Z,9.02
2023-02-03T00:20:46.409Z,9.02
2023-02-03T00:21:46.619Z,9.05
2023-02-03T00:22:48.030Z,9.04
2023-02-03T00:23:47.232Z,9.01
2023-02-03T00:24:47.540Z,9.02
2023-02-03T00:25:47.888Z,8.94
2023-02-03T00:26:48.174Z,9.02
2023-02-03T00:27:48.362Z,8.94
2023-02-03T00:28:48.732Z,8.97
2023-02-03T00:29:48.889Z,8.97
2023-02-03T00:30:49.253Z,9.02
2023-02-03T00:31:49.641Z,9.04
2023-02-03T00:32:49.782Z,9.05
2023-02-03T00:33:50.065Z,9.05
2023-02-03T00:34:50.499Z,9.09
2023-02-03T00:35:50.685Z,9.04
2023-02-03T00:36:50.960Z,8.97
2023-02-03T00:37:51.285Z,8.90
2023-02-03T00:38:51.573Z,8.88
2023-02-03T00:39:51.891Z,8.86
2023-02-03T00:40:53.158Z,8.79
2023-02-03T00:41:52.531Z,8.83
2023-02-03T00:42:52.705Z,8.84
2023-02-03T00:43:52.943Z,8.86
2023-02-03T00:44:53.312Z,8.83
2023-02-03T00:45:53.637Z,8.83
2023-02-03T00:46:53.855Z,8.81
2023-02-03T00:47:54.162Z,8.84
2023-02-03T00:48:54.465Z,8.90
2023-02-03T00:49:54.826Z,8.93
2023-02-03T00:50:55.040Z,9.01
2023-02-03T00:51:55.299Z,8.99
2023-02-03T00:52:55.649Z,9.01
2023-02-03T00:53:55.945Z,9.05
2023-02-03T00:54:56.255Z,9.06
2023-02-03T00:55:56.577Z,9.05
2023-02-03T00:56:56.910Z,9.05
2023-02-03T00:57:57.200Z,9.02
2023-02-03T00:58:57.551Z,9.06
2023-02-03T00:59:57.924Z,9.10
2023-02-03T01:00:58.262Z,9.10
2023-02-03T01:01:58.456Z,9.10
2023-02-03T01:02:58.776Z,9.09
2023-02-03T01:03:59.013Z,9.05
2023-02-03T01:04:59.342Z,9.06
2023-02-03T01:05:59.601Z,9.09
2023-02-03T01:06:59.934Z,9.09
2023-02-03T01:08:00.628Z,9.09
2023-02-03T01:09:00.548Z,9.06
2023-02-03T01:10:00.886Z,9.12
2023-02-03T01:11:01.070Z,9.12
2023-02-03T01:12:01.377Z,9.12
2023-02-03T01:13:01.720Z,9.13
2023-02-03T01:14:01.982Z,9.12
2023-02-03T01:15:02.319Z,9.15
2023-02-03T01:16:02.628Z,9.10
2023-02-03T01:17:03.046Z,9.06
2023-02-03T01:18:03.184Z,9.05
2023-02-03T01:19:03.483Z,9.06
2023-02-03T01:20:03.773Z,9.05
2023-02-03T01:21:04.171Z,9.02
2023-02-03T01:22:04.377Z,9.06
2023-02-03T01:23:04.742Z,9.04
2023-02-03T01:24:04.963Z,8.99
2023-02-03T01:25:05.302Z,8.99
2023-02-03T01:26:05.496Z,8.97
2023-02-03T01:27:05.819Z,8.93
2023-02-03T01:28:06.298Z,8.96
2023-02-03T01:29:06.475Z,8.99
2023-02-03T01:30:06.843Z,9.04
2023-02-03T01:31:07.169Z,9.04
2023-02-03T01:32:07.343Z,9.05
2023-02-03T01:33:07.650Z,9.05
2023-02-03T01:34:07.972Z,9.10
2023-02-03T01:35:08.342Z,9.09
2023-02-03T01:36:08.591Z,9.05
2023-02-03T01:37:08.901Z,9.06
2023-02-03T01:38:09.237Z,9.01
2023-02-03T01:39:09.536Z,9.04
2023-02-03T01:40:09.856Z,8.99
2023-02-03T01:41:10.180Z,8.94
2023-02-03T01:42:10.510Z,8.94
2023-02-03T01:43:10.815Z,8.88
2023-02-03T01:44:11.138Z,8.88
2023-02-03T01:45:13.382Z,8.84
2023-02-03T01:46:11.671Z,8.86
2023-02-03T01:47:11.991Z,8.91
2023-02-03T01:48:12.296Z,8.84
2023-02-03T01:49:12.577Z,8.86
2023-02-03T01:50:12.893Z,8.90
2023-02-03T01:51:13.197Z,8.91
2023-02-03T01:52:13.499Z,8.90
2023-02-03T01:53:13.829Z,8.88
2023-02-03T01:54:14.208Z,8.91
2023-02-03T01:55:14.391Z,8.91
2023-02-03T01:56:14.688Z,8.91
2023-02-03T01:57:15.015Z,8.88
2023-02-03T01:58:15.332Z,8.87
2023-02-03T01:59:15.658Z,8.90
2023-02-03T02:00:15.986Z,8.87
2023-02-03T02:01:18.563Z,8.91
2023-02-03T02:02:16.516Z,8.94
2023-02-03T02:03:16.707Z,8.93
2023-02-03T02:04:16.940Z,8.93
2023-02-03T02:05:17.296Z,8.93
2023-02-03T02:06:17.594Z,8.93
2023-02-03T02:07:17.753Z,8.97
2023-02-03T02:08:18.083Z,8.96
2023-02-03T02:09:18.430Z,8.93
2023-02-03T02:10:18.701Z,8.93
2023-02-03T02:11:18.971Z,8.91
2023-02-03T02:12:19.259Z,8.88
2023-02-03T02:13:19.538Z,8.90
2023-02-03T02:14:19.866Z,8.91
2023-02-03T02:15:20.184Z,8.87
2023-02-03T02:16:20.490Z,8.87
2023-02-03T02:17:20.770Z,8.88
2023-02-03T02:18:21.079Z,8.87
2023-02-03T02:19:21.396Z,8.90
2023-02-03T02:20:21.670Z,8.88
2023-02-03T02:21:22.046Z,8.88
2023-02-03T02:22:22.322Z,8.91
2023-02-03T02:23:22.695Z,8.90
2023-02-03T02:24:22.850Z,8.91
2023-02-03T02:25:23.241Z,8.94
2023-02-03T02:26:23.421Z,8.94
2023-02-03T02:27:23.726Z,8.99
2023-02-03T02:28:24.037Z,8.99
2023-02-03T02:29:24.652Z,8.93
2023-02-03T02:30:24.823Z,8.94
2023-02-03T02:31:24.904Z,8.94
2023-02-03T02:32:25.093Z,8.94
2023-02-03T02:33:25.371Z,8.91
2023-02-03T02:34:25.658Z,8.79
2023-02-03T02:35:26.056Z,8.79
2023-02-03T02:36:26.207Z,8.79
2023-02-03T02:37:26.499Z,8.76
2023-02-03T02:38:26.794Z,8.81
2023-02-03T02:39:27.102Z,8.79
2023-02-03T02:40:27.757Z,8.79
2023-02-03T02:41:27.712Z,8.83
2023-02-03T02:42:28.048Z,8.79
2023-02-03T02:43:28.352Z,8.79
2023-02-03T02:44:28.630Z,8.83
2023-02-03T02:45:28.995Z,8.87
2023-02-03T02:46:29.283Z,8.90
2023-02-03T02:47:29.520Z,8.84
2023-02-03T02:48:29.727Z,8.86
2023-02-03T02:49:30.043Z,8.86
2023-02-03T02:50:30.311Z,8.88
2023-02-03T02:51:30.679Z,8.88
2023-02-03T02:52:30.961Z,8.93
2023-02-03T02:53:31.252Z,8.97
2023-02-03T02:54:31.533Z,8.96
2023-02-03T02:55:31.836Z,8.96
2023-02-03T02:56:32.126Z,8.97
2023-02-03T02:57:32.454Z,8.94
2023-02-03T02:58:32.772Z,8.99
2023-02-03T02:59:32.985Z,9.01
2023-02-03T03:00:33.325Z,8.99
2023-02-03T03:01:33.652Z,9.02
2023-02-03T03:02:33.936Z,8.96
2023-02-03T03:03:34.239Z,8.99
2023-02-03T03:04:34.534Z,8.93
2023-02-03T03:05:34.841Z,8.96
2023-02-03T03:06:35.143Z,8.97
2023-02-03T03:07:35.455Z,8.96
2023-02-03T03:08:35.794Z,8.99
2023-02-03T03:09:36.071Z,8.94
2023-02-03T03:10:36.245Z,8.91
2023-02-03T03:11:36.531Z,8.91
2023-02-03T03:12:36.834Z,8.93
2023-02-03T03:13:37.160Z,8.97
2023-02-03T03:14:37.453Z,8.97
2023-02-03T03:15:37.807Z,9.02
2023-02-03T03:16:37.985Z,9.05
2023-02-03T03:17:38.351Z,9.01
2023-02-03T03:18:38.642Z,9.04
2023-02-03T03:19:38.971Z,8.99
2023-02-03T03:20:39.272Z,8.96
2023-02-03T03:21:39.852Z,8.93
2023-02-03T03:22:39.888Z,8.88
2023-02-03T03:23:40.199Z,8.88
2023-02-03T03:24:40.540Z,8.88
2023-02-03T03:25:40.816Z,8.93
2023-02-03T03:26:41.127Z,8.93
2023-02-03T03:27:41.516Z,8.96
2023-02-03T03:28:41.736Z,8.96
2023-02-03T03:29:42.083Z,8.99
2023-02-03T03:30:42.422Z,8.94
2023-02-03T03:31:42.634Z,8.94
2023-02-03T03:32:42.819Z,8.90
2023-02-03T03:33:43.136Z,8.86
2023-02-03T03:34:43.452Z,8.87
2023-02-03T03:35:43.887Z,8.91
2023-02-03T03:36:43.976Z,8.91
2023-02-03T03:37:44.295Z,8.91
2023-02-03T03:38:44.576Z,8.93
2023-02-03T03:39:44.859Z,8.97
2023-02-03T03:40:45.136Z,8.97
2023-02-03T03:41:45.442Z,9.02
2023-02-03T03:42:45.781Z,9.01
2023-02-03T03:43:46.084Z,8.99
2023-02-03T03:44:46.343Z,8.99
2023-02-03T03:45:46.701Z,8.97
2023-02-03T03:46:47.052Z,8.99
2023-02-03T03:47:47.348Z,8.99
2023-02-03T03:48:47.586Z,8.97
2023-02-03T03:49:47.962Z,8.96
2023-02-03T03:50:48.268Z,8.99
2023-02-03T03:51:48.622Z,8.97
2023-02-03T03:52:48.815Z,8.93
2023-02-03T03:53:49.051Z,8.91
2023-02-03T03:54:49.321Z,8.93
2023-02-03T03:55:49.638Z,8.91
2023-02-03T03:56:49.995Z,8.91
2023-02-03T03:57:50.176Z,8.93
2023-02-03T03:58:50.393Z,8.99
2023-02-03T03:59:50.701Z,9.02
2023-02-03T04:00:50.981Z,9.02
2023-02-03T04:01:51.419Z,9.05
2023-02-03T04:02:51.704Z,9.02
2023-02-03T04:03:51.877Z,9.04
2023-02-03T04:04:52.271Z,8.99
2023-02-03T04:05:52.594Z,8.99
2023-02-03T04:06:52.868Z,8.99
2023-02-03T04:07:53.150Z,8.99
2023-02-03T04:08:53.441Z,9.01
2023-02-03T04:09:53.812Z,9.04
2023-02-03T04:10:54.088Z,9.04
2023-02-03T04:11:54.492Z,9.09
2023-02-03T04:12:54.626Z,9.10
2023-02-03T04:13:54.976Z,9.12
2023-02-03T04:14:55.296Z,9.10
2023-02-03T04:15:55.610Z,9.10
2023-02-03T04:16:55.793Z,9.09
2023-02-03T04:17:56.104Z,9.09
2023-02-03T04:18:56.355Z,9.06
2023-02-03T04:19:56.682Z,9.05
2023-02-03T04:20:56.968Z,9.06
2023-02-03T04:21:57.342Z,9.06
2023-02-03T04:22:57.666Z,9.10
2023-02-03T04:23:57.940Z,9.12
2023-02-03T04:24:58.258Z,9.12
2023-02-03T04:25:58.548Z,9.12
2023-02-03T04:26:58.869Z,9.12
2023-02-03T04:27:59.256Z,9.09
2023-02-03T04:28:59.448Z,9.10
2023-02-03T04:29:59.760Z,9.10
2023-02-03T04:31:00.070Z,9.12
2023-02-03T04:32:00.522Z,9.09
2023-02-03T04:33:00.747Z,9.12
2023-02-03T04:34:01.030Z,9.12
2023-02-03T04:35:01.359Z,9.12
2023-02-03T04:36:01.689Z,9.10
2023-02-03T04:37:01.990Z,9.13
2023-02-03T04:38:02.340Z,9.20
2023-02-03T04:39:02.611Z,9.16
2023-02-03T04:40:02.898Z,9.16
2023-02-03T04:41:03.189Z,9.20
2023-02-03T04:42:03.531Z,9.18
2023-02-03T04:43:03.752Z,9.18
2023-02-03T04:44:04.039Z,9.18
2023-02-03T04:45:04.310Z,9.18
2023-02-03T04:46:04.691Z,9.18
2023-02-03T04:47:04.889Z,9.20
2023-02-03T04:48:05.124Z,9.18
2023-02-03T04:49:05.403Z,9.16
2023-02-03T04:50:05.812Z,9.20
2023-02-03T04:51:06.096Z,9.24
2023-02-03T04:52:06.490Z,9.27
2023-02-03T04:53:06.789Z,9.27
2023-02-03T04:54:07.062Z,9.25
2023-02-03T04:55:07.251Z,9.28
2023-02-03T04:56:07.573Z,9.31
2023-02-03T04:57:07.942Z,9.30
2023-02-03T04:58:08.120Z,9.30
2023-02-03T04:59:08.423Z,9.31
2023-02-03T05:00:08.750Z,9.30
2023-02-03T05:01:09.103Z,9.30
2023-02-03T05:02:09.333Z,9.28
2023-02-03T05:03:09.713Z,9.27
2023-02-03T05:04:09.908Z,9.25
2023-02-03T05:05:10.182Z,9.28
2023-02-03T05:06:10.538Z,9.27
2023-02-03T05:07:10.805Z,9.27
2023-02-03T05:08:11.192Z,9.25
2023-02-03T05:09:11.412Z,9.31
2023-02-03T05:10:11.667Z,9.28
2023-02-03T05:11:12.071Z,9.30
2023-02-03T05:12:12.316Z,9.30
2023-02-03T05:13:12.626Z,9.30
2023-02-03T05:14:12.858Z,9.30
2023-02-03T05:15:13.138Z,9.28
2023-02-03T05:16:13.378Z,9.30
2023-02-03T05:17:13.609Z,9.31
2023-02-03T05:18:13.929Z,9.30
2023-02-03T05:19:14.169Z,9.27
2023-02-03T05:20:14.539Z,9.30
2023-02-03T05:21:14.712Z,9.27
2023-02-03T05:22:15.139Z,9.32
2023-02-03T05:23:15.359Z,9.34
2023-02-03T05:24:15.637Z,9.31
2023-02-03T05:25:15.964Z,9.34
2023-02-03T05:26:16.252Z,9.38
2023-02-03T05:27:16.495Z,9.31
2023-02-03T05:28:16.781Z,9.34
2023-02-03T05:29:16.965Z,9.39
2023-02-03T05:30:17.356Z,9.42
2023-02-03T05:31:17.715Z,9.43
2023-02-03T05:32:17.846Z,9.43
2023-02-03T05:33:18.110Z,9.46
2023-02-03T05:34:18.359Z,9.43
2023-02-03T05:35:18.763Z,9.45
2023-02-03T05:36:18.995Z,9.42
2023-02-03T05:37:19.220Z,9.40
2023-02-03T05:38:19.568Z,9.39
2023-02-03T05:39:19.876Z,9.40
2023-02-03T05:40:20.158Z,9.43
2023-02-03T05:41:20.383Z,9.40
2023-02-03T05:42:20.680Z,9.42
2023-02-03T05:43:21.025Z,9.43
2023-02-03T05:44:21.336Z,9.48
2023-02-03T05:45:21.723Z,9.45
2023-02-03T05:46:21.850Z,9.39
2023-02-03T05:47:22.132Z,9.38
2023-02-03T05:48:22.489Z,9.32
2023-02-03T05:49:22.694Z,9.35
2023-02-03T05:50:23.004Z,9.38
2023-02-03T05:51:23.342Z,9.38
2023-02-03T05:52:23.645Z,9.35
2023-02-03T05:53:23.941Z,9.38
2023-02-03T05:54:24.265Z,9.35
2023-02-03T05:55:24.588Z,9.32
2023-02-03T05:56:24.865Z,9.32
2023-02-03T05:57:25.176Z,9.28
2023-02-03T05:58:25.525Z,9.27
2023-02-03T05:59:25.749Z,9.30
2023-02-03T06:00:26.428Z,9.34
2023-02-03T06:01:26.381Z,9.25
2023-02-03T06:02:26.931Z,9.27
2023-02-03T06:03:27.199Z,9.24
2023-02-03T06:04:28.178Z,9.23
2023-02-03T06:05:27.564Z,9.24
2023-02-03T06:06:27.866Z,9.25
2023-02-03T06:07:28.165Z,9.28
2023-02-03T06:08:28.596Z,9.21
2023-02-03T06:09:28.662Z,9.20
2023-02-03T06:10:29.263Z,9.21
2023-02-03T06:11:29.276Z,9.23
2023-02-03T06:12:29.602Z,9.24
2023-02-03T06:13:29.893Z,9.24
2023-02-03T06:14:30.232Z,9.28
2023-02-03T06:15:30.488Z,9.23
2023-02-03T06:16:31.204Z,9.25
2023-02-03T06:17:31.017Z,9.30
2023-02-03T06:18:31.339Z,9.28
2023-02-03T06:19:31.658Z,9.30
2023-02-03T06:20:32.051Z,9.28
2023-02-03T06:21:32.263Z,9.28
2023-02-03T06:22:32.463Z,9.28
2023-02-03T06:23:32.812Z,9.30
2023-02-03T06:24:33.231Z,9.32
2023-02-03T06:25:33.936Z,9.32
2023-02-03T06:26:33.682Z,9.32
2023-02-03T06:27:34.070Z,9.30
2023-02-03T06:28:34.743Z,9.30
2023-02-03T06:29:34.471Z,9.31
2023-02-03T06:30:34.823Z,9.34
2023-02-03T06:31:35.065Z,9.34
2023-02-03T06:32:35.277Z,9.34
2023-02-03T06:33:35.575Z,9.38
2023-02-03T06:34:35.876Z,9.43
2023-02-03T06:35:36.074Z,9.39
2023-02-03T06:36:36.449Z,9.40
2023-02-03T06:37:36.657Z,9.40
2023-02-03T06:38:37.177Z,9.39
2023-02-03T06:39:37.242Z,9.39
2023-02-03T06:40:37.531Z,9.39
2023-02-03T06:41:37.718Z,9.35
2023-02-03T06:42:38.161Z,9.38
2023-02-03T06:43:38.390Z,9.38
2023-02-03T06:44:38.691Z,9.40
2023-02-03T06:45:38.955Z,9.40
2023-02-03T06:46:39.192Z,9.40
2023-02-03T06:47:39.443Z,9.43
2023-02-03T06:48:39.695Z,9.40
2023-02-03T06:49:39.911Z,9.42
2023-02-03T06:50:40.292Z,9.40
2023-02-03T06:51:40.509Z,9.38
2023-02-03T06:52:40.746Z,9.32
2023-02-03T06:53:41.002Z,9.31
2023-02-03T06:54:41.233Z,9.32
2023-02-03T06:55:41.497Z,9.27
2023-02-03T06:56:41.745Z,9.28
2023-02-03T06:57:42.006Z,9.30
2023-02-03T06:58:42.267Z,9.27
2023-02-03T06:59:42.450Z,9.25
2023-02-03T07:00:42.714Z,9.23
2023-02-03T07:01:43.474Z,9.15
2023-02-03T07:02:43.343Z,9.10
2023-02-03T07:03:43.568Z,9.09
2023-02-03T07:04:43.783Z,9.06
2023-02-03T07:05:44.009Z,9.06
2023-02-03T07:06:44.415Z,9.06
2023-02-03T07:07:44.615Z,9.02
2023-02-03T07:08:44.937Z,9.01
2023-02-03T07:09:45.105Z,9.01
2023-02-03T07:10:45.574Z,8.99
2023-02-03T07:11:45.745Z,8.93
2023-02-03T07:12:46.002Z,8.90
2023-02-03T07:13:46.258Z,8.84
2023-02-03T07:14:46.579Z,8.78
2023-02-03T07:15:46.820Z,8.78
2023-02-03T07:16:47.052Z,8.81
2023-02-03T07:17:47.311Z,8.75
2023-02-03T07:18:48.360Z,8.75
2023-02-03T07:19:48.008Z,8.72
2023-02-03T07:20:48.246Z,8.73
2023-02-03T07:21:48.510Z,8.73
2023-02-03T07:22:48.758Z,8.73
2023-02-03T07:23:48.993Z,8.76
2023-02-03T07:24:49.251Z,8.76
2023-02-03T07:25:49.491Z,8.72
2023-02-03T07:26:49.881Z,8.73
2023-02-03T07:27:50.224Z,8.75
2023-02-03T07:28:50.422Z,8.83
2023-02-03T07:29:50.629Z,8.87
2023-02-03T07:30:51.029Z,8.86
2023-02-03T07:31:51.252Z,8.88
2023-02-03T07:32:51.407Z,8.88
2023-02-03T07:33:51.573Z,8.87
2023-02-03T07:34:51.938Z,8.76
2023-02-03T07:35:52.128Z,8.72
2023-02-03T07:36:52.493Z,8.75
2023-02-03T07:37:52.739Z,8.71
2023-02-03T07:38:52.969Z,8.72
2023-02-03T07:39:53.234Z,8.73
2023-02-03T07:40:53.609Z,8.75
2023-02-03T07:41:53.835Z,8.76
2023-02-03T07:42:54.202Z,8.71
2023-02-03T07:43:54.469Z,8.72
2023-02-03T07:44:54.723Z,8.72
2023-02-03T07:45:54.928Z,8.76
2023-02-03T07:46:55.300Z,8.76
2023-02-03T07:47:55.479Z,8.78
2023-02-03T07:48:55.833Z,8.81
2023-02-03T07:49:56.058Z,8.87
2023-02-03T07:50:56.311Z,8.87
2023-02-03T07:51:56.600Z,8.90
2023-02-03T07:52:56.808Z,8.97
2023-02-03T07:53:57.001Z,9.01
2023-02-03T07:54:57.766Z,8.99
2023-02-03T07:55:57.651Z,8.93
2023-02-03T07:56:57.995Z,8.94
2023-02-03T07:57:58.233Z,8.96
2023-02-03T07:58:58.568Z,8.96
2023-02-03T07:59:58.866Z,8.96
2023-02-03T08:00:59.121Z,9.01
2023-02-03T08:01:59.576Z,8.97
2023-02-03T08:02:59.622Z,8.99
2023-02-03T08:03:59.829Z,9.01
2023-02-03T08:05:00.286Z,8.99
2023-02-03T08:06:00.508Z,9.01
2023-02-03T08:07:00.768Z,9.02
2023-02-03T08:08:01.003Z,9.01
2023-02-03T08:09:01.368Z,9.05
2023-02-03T08:10:01.592Z,9.05
2023-02-03T08:11:02.322Z,9.06
2023-02-03T08:12:02.213Z,9.12
2023-02-03T08:13:02.567Z,9.12
2023-02-03T08:14:02.809Z,9.16
2023-02-03T08:15:03.217Z,9.23
2023-02-03T08:16:03.416Z,9.23
2023-02-03T08:17:03.660Z,9.23
2023-02-03T08:18:04.019Z,9.24
2023-02-03T08:19:04.356Z,9.24
2023-02-03T08:20:04.628Z,9.28
2023-02-03T08:21:04.899Z,9.32
2023-02-03T08:22:05.056Z,9.32
2023-02-03T08:23:05.448Z,9.32
2023-02-03T08:24:05.973Z,9.32
2023-02-03T08:25:06.024Z,9.35
2023-02-03T08:26:06.195Z,9.40
2023-02-03T08:27:06.592Z,9.40
2023-02-03T08:28:07.051Z,9.35
2023-02-03T08:29:07.105Z,9.42
2023-02-03T08:30:07.467Z,9.45
2023-02-03T08:31:07.819Z,9.43
2023-02-03T08:32:08.053Z,9.45
2023-02-03T08:33:08.270Z,9.46
2023-02-03T08:34:08.524Z,9.45
2023-02-03T08:35:08.729Z,9.49
2023-02-03T08:36:08.935Z,9.50
2023-02-03T08:37:09.331Z,9.49
2023-02-03T08:38:09.674Z,9.52
2023-02-03T08:39:09.856Z,9.52
2023-02-03T08:40:10.122Z,9.56
2023-02-03T08:41:10.363Z,9.56
2023-02-03T08:42:10.636Z,9.57
2023-02-03T08:43:11.005Z,9.60
2023-02-03T08:44:11.212Z,9.60
2023-02-03T08:45:11.525Z,9.60
2023-02-03T08:46:11.758Z,9.61
2023-02-03T08:47:12.076Z,9.66
2023-02-03T08:48:12.266Z,9.67
2023-02-03T08:49:12.521Z,9.66
2023-02-03T08:50:12.790Z,9.64
2023-02-03T08:51:13.034Z,9.66
2023-02-03T08:52:13.909Z,9.64
2023-02-03T08:53:13.698Z,9.71
2023-02-03T08:54:13.964Z,9.73
2023-02-03T08:55:14.222Z,9.73
2023-02-03T08:56:14.477Z,9.78
2023-02-03T08:57:14.752Z,9.79
2023-02-03T08:58:15.343Z,9.78
2023-02-03T08:59:15.271Z,9.76
2023-02-03T09:00:15.567Z,9.79
2023-02-03T09:01:15.992Z,9.78
2023-02-03T09:02:16.150Z,9.75
2023-02-03T09:03:16.362Z,9.76
2023-02-03T09:04:16.625Z,9.73
2023-02-03T09:05:16.886Z,9.75
2023-02-03T09:06:17.124Z,9.76
2023-02-03T09:07:17.380Z,9.79
2023-02-03T09:08:17.671Z,9.78
2023-02-03T09:09:17.918Z,9.76
2023-02-03T09:10:18.148Z,9.81
2023-02-03T09:11:18.451Z,9.82
2023-02-03T09:12:18.734Z,9.86
2023-02-03T09:13:18.966Z,9.83
2023-02-03T09:14:19.151Z,9.85
2023-02-03T09:15:19.441Z,9.85
2023-02-03T09:16:19.846Z,9.89
2023-02-03T09:17:20.078Z,9.88
2023-02-03T09:18:20.306Z,9.89
2023-02-03T09:19:20.593Z,9.86
2023-02-03T09:20:20.914Z,9.85
2023-02-03T09:21:33.129Z,9.82
2023-02-03T09:22:22.399Z,9.82
2023-02-03T09:23:21.663Z,9.82
2023-02-03T09:24:21.875Z,9.85
2023-02-03T09:25:22.145Z,9.86
2023-02-03T09:26:22.417Z,9.86
2023-02-03T09:27:22.861Z,9.85
2023-02-03T09:28:23.055Z,9.88
2023-02-03T09:29:23.295Z,9.89
2023-02-03T09:30:23.537Z,9.91
2023-02-03T09:31:23.839Z,9.88
2023-02-03T09:32:24.038Z,9.91
2023-02-03T09:33:24.312Z,9.94
2023-02-03T09:34:24.568Z,9.96
2023-02-03T09:35:24.830Z,9.96
2023-02-03T09:36:25.097Z,9.99
2023-02-03T09:37:25.367Z,10.00
2023-02-03T09:38:25.682Z,10.00
2023-02-03T09:39:25.876Z,10.01
2023-02-03T09:40:27.152Z,10.04
2023-02-03T09:41:26.443Z,10.07
2023-02-03T09:42:26.700Z,10.12
2023-02-03T09:43:26.999Z,10.12
2023-02-03T09:44:27.223Z,10.10
2023-02-03T09:45:27.448Z,10.14
2023-02-03T09:46:27.764Z,10.14
2023-02-03T09:47:28.020Z,10.15
2023-02-03T09:48:28.262Z,10.22
2023-02-03T09:49:28.654Z,10.25
2023-02-03T09:50:29.192Z,10.26
2023-02-03T09:51:29.215Z,10.28
2023-02-03T09:52:29.414Z,10.32
2023-02-03T09:53:29.697Z,10.32
2023-02-03T09:54:29.914Z,10.28
2023-02-03T09:55:30.317Z,10.26
2023-02-03T09:56:30.544Z,10.28
2023-02-03T09:57:30.892Z,10.25
2023-02-03T09:58:31.080Z,10.24
2023-02-03T09:59:31.387Z,10.22
2023-02-03T10:00:31.715Z,10.21
2023-02-03T10:01:31.974Z,10.22
2023-02-03T10:02:32.339Z,10.19
2023-02-03T10:03:32.518Z,10.18
2023-02-03T10:04:32.754Z,10.12
2023-02-03T10:05:33.053Z,10.10
2023-02-03T10:06:33.296Z,10.12
2023-02-03T10:07:33.554Z,10.15
2023-02-03T10:08:33.832Z,10.17
2023-02-03T10:09:34.128Z,10.22
2023-02-03T10:10:34.445Z,10.22
2023-02-03T10:11:34.756Z,10.30
2023-02-03T10:12:34.958Z,10.34
2023-02-03T10:13:36.664Z,10.34
2023-02-03T10:14:35.671Z,10.33
2023-02-03T10:15:35.778Z,10.33
2023-02-03T10:16:36.063Z,10.30
2023-02-03T10:17:36.314Z,10.33
2023-02-03T10:18:36.536Z,10.30
2023-02-03T10:19:36.831Z,10.24
2023-02-03T10:20:37.054Z,10.22
2023-02-03T10:21:37.381Z,10.24
2023-02-03T10:22:37.672Z,10.25
2023-02-03T10:23:38.107Z,10.30
2023-02-03T10:24:38.215Z,10.32
2023-02-03T10:25:38.454Z,10.24
2023-02-03T10:26:38.721Z,10.28
2023-02-03T10:27:39.046Z,10.28
2023-02-03T10:28:39.282Z,10.30
2023-02-03T10:29:39.693Z,10.30
2023-02-03T10:30:39.861Z,10.36
2023-02-03T10:31:40.392Z,10.43
2023-02-03T10:32:40.338Z,10.42
2023-02-03T10:33:40.680Z,10.46
2023-02-03T10:34:40.922Z,10.55
2023-02-03T10:35:41.190Z,10.58
2023-02-03T10:36:41.445Z,10.62
2023-02-03T10:37:41.754Z,10.55
2023-02-03T10:38:41.931Z,10.46
2023-02-03T10:39:42.189Z,10.43
2023-02-03T10:40:42.617Z,10.44
2023-02-03T10:41:42.740Z,10.46
2023-02-03T10:42:43.085Z,10.46
2023-02-03T10:43:43.301Z,10.51
2023-02-03T10:44:43.555Z,10.51
2023-02-03T10:45:43.864Z,10.51
2023-02-03T10:46:44.140Z,10.44
2023-02-03T10:47:44.463Z,10.46
2023-02-03T10:48:44.686Z,10.52
2023-02-03T10:49:44.964Z,10.44
2023-02-03T10:50:45.202Z,10.44
2023-02-03T10:51:45.514Z,10.40
2023-02-03T10:52:45.708Z,10.30
2023-02-03T10:53:45.953Z,10.17
2023-02-03T10:54:46.277Z,10.17
2023-02-03T10:55:46.544Z,10.17
2023-02-03T10:56:46.775Z,10.19
2023-02-03T10:57:47.052Z,10.18
2023-02-03T10:58:47.287Z,10.17
2023-02-03T10:59:47.574Z,10.18
2023-02-03T11:00:47.911Z,10.18
2023-02-03T11:01:48.251Z,10.21
2023-02-03T11:02:48.433Z,10.26
2023-02-03T11:03:48.680Z,10.22
2023-02-03T11:04:48.956Z,10.19
2023-02-03T11:05:49.300Z,10.19
2023-02-03T11:06:49.523Z,10.24
2023-02-03T11:07:49.797Z,10.28
2023-02-03T11:08:51.204Z,10.34
2023-02-03T11:09:50.409Z,10.40
2023-02-03T11:10:50.677Z,10.40
2023-02-03T11:11:50.955Z,10.36
2023-02-03T11:12:51.214Z,10.33
2023-02-03T11:13:51.580Z,10.32
2023-02-03T11:14:51.795Z,10.28
2023-02-03T11:15:52.555Z,10.30
2023-02-03T11:16:52.344Z,10.32
2023-02-03T11:17:52.642Z,10.30
2023-02-03T11:18:52.843Z,10.28
2023-02-03T11:19:53.243Z,10.34
2023-02-03T11:20:53.489Z,10.36
2023-02-03T11:21:53.808Z,10.37
2023-02-03T11:22:54.033Z,10.37
2023-02-03T11:23:54.326Z,10.43
2023-02-03T11:24:54.611Z,10.51
2023-02-03T11:25:54.896Z,10.52
2023-02-03T11:26:55.233Z,10.51
2023-02-03T11:27:55.511Z,10.53
2023-02-03T11:28:56.579Z,10.51
2023-02-03T11:29:56.044Z,10.44
2023-02-03T11:30:56.384Z,10.47
2023-02-03T11:31:57.675Z,10.51
2023-02-03T11:32:56.758Z,10.52
2023-02-03T11:33:56.978Z,10.53
2023-02-03T11:34:57.264Z,10.52
2023-02-03T11:35:57.513Z,10.51
2023-02-03T11:36:57.751Z,10.52
2023-02-03T11:37:58.026Z,10.51
2023-02-03T11:38:58.287Z,10.56
2023-02-03T11:39:58.564Z,10.62
2023-02-03T11:40:58.797Z,10.63
2023-02-03T11:41:59.064Z,10.60
2023-02-03T11:42:59.431Z,10.59
2023-02-03T11:43:59.665Z,10.58
2023-02-03T11:44:59.912Z,10.56
2023-02-03T11:46:00.181Z,10.52
2023-02-03T11:47:00.432Z,10.47
2023-02-03T11:48:00.748Z,10.52
2023-02-03T11:49:01.012Z,10.52
2023-02-03T11:50:01.243Z,10.53
2023-02-03T11:51:01.510Z,10.52
2023-02-03T11:52:01.821Z,10.55
2023-02-03T11:53:02.035Z,10.55
2023-02-03T11:54:02.356Z,10.53
2023-02-03T11:55:02.514Z,10.55
2023-02-03T11:56:02.894Z,10.53
2023-02-03T11:57:03.209Z,10.51
2023-02-03T11:58:03.478Z,10.47
2023-02-03T11:59:03.671Z,10.46
2023-02-03T12:00:03.955Z,10.43
2023-02-03T12:01:04.224Z,10.43
2023-02-03T12:02:04.524Z,10.44
2023-02-03T12:03:04.739Z,10.44
2023-02-03T12:04:05.074Z,10.44
2023-02-03T12:05:05.332Z,10.43
2023-02-03T12:06:05.656Z,10.36
2023-02-03T12:07:05.835Z,10.36
2023-02-03T12:08:06.133Z,10.33
2023-02-03T12:09:06.393Z,10.32
2023-02-03T12:10:06.667Z,10.30
2023-02-03T12:11:06.929Z,10.32
2023-02-03T12:12:07.376Z,10.28
2023-02-03T12:13:07.639Z,10.25
2023-02-03T12:14:07.839Z,10.26
2023-02-03T12:15:08.512Z,10.22
2023-02-03T12:16:08.501Z,10.24
2023-02-03T12:17:08.774Z,10.21
2023-02-03T12:18:09.126Z,10.25
2023-02-03T12:19:09.226Z,10.24
2023-02-03T12:20:09.515Z,10.26
2023-02-03T12:21:09.778Z,10.25
2023-02-03T12:22:10.092Z,10.28
2023-02-03T12:23:11.265Z,10.28
2023-02-03T12:24:10.561Z,10.32
2023-02-03T12:25:10.859Z,10.26
2023-02-03T12:26:11.089Z,10.24
2023-02-03T12:27:12.319Z,10.24
2023-02-03T12:28:18.173Z,10.22
2023-02-03T12:29:12.906Z,10.21
2023-02-03T12:30:12.218Z,10.24
2023-02-03T12:31:12.583Z,10.24
2023-02-03T12:32:12.811Z,10.22
2023-02-03T12:33:12.915Z,10.24
2023-02-03T12:34:13.146Z,10.26
2023-02-03T12:35:13.410Z,10.26
2023-02-03T12:36:13.656Z,10.25
2023-02-03T12:37:13.918Z,10.25
2023-02-03T12:38:14.199Z,10.30
2023-02-03T12:39:14.478Z,10.24
2023-02-03T12:40:14.716Z,10.28
2023-02-03T12:41:14.936Z,10.30
2023-02-03T12:42:15.199Z,10.33
2023-02-03T12:43:15.494Z,10.34
2023-02-03T12:44:15.769Z,10.33
2023-02-03T12:45:16.032Z,10.37
2023-02-03T12:46:16.378Z,10.37
2023-02-03T12:47:16.588Z,10.43
2023-02-03T12:48:16.859Z,10.39
2023-02-03T12:49:17.122Z,10.39
2023-02-03T12:50:17.374Z,10.43
2023-02-03T12:51:17.641Z,10.42
2023-02-03T12:52:17.862Z,10.39
2023-02-03T12:53:18.164Z,10.37
2023-02-03T12:54:18.408Z,10.36
2023-02-03T12:55:18.697Z,10.33
2023-02-03T12:56:18.977Z,10.37
2023-02-03T12:57:19.264Z,10.40
2023-02-03T12:58:19.545Z,10.43
2023-02-03T12:59:19.745Z,10.39
2023-02-03T13:00:20.217Z,10.32
2023-02-03T13:01:20.328Z,10.28
2023-02-03T13:02:20.595Z,10.30
2023-02-03T13:03:20.894Z,10.30
2023-02-03T13:04:21.133Z,10.34
2023-02-03T13:05:21.440Z,10.39
2023-02-03T13:06:21.703Z,10.44
2023-02-03T13:07:21.963Z,10.43
2023-02-03T13:08:23.109Z,10.40
2023-02-03T13:09:22.622Z,10.44
2023-02-03T13:10:23.192Z,10.46
2023-02-03T13:11:23.116Z,10.43
2023-02-03T13:12:23.335Z,10.46
2023-02-03T13:13:23.620Z,10.47
2023-02-03T13:14:23.886Z,10.44
2023-02-03T13:15:24.180Z,10.46